createdAt,value
2018-04-26T00:00:16.870Z,99.90
2018-04-26T00:03:03.210Z,99.90
2018-04-26T00:05:33.756Z,99.90
2018-04-26T00:11:13.905Z,99.90
2018-04-26T00:16:30.596Z,99.90
2018-04-26T00:25:36.790Z,99.90
2018-04-26T00:31:17.064Z,99.90
2018-04-26T00:34:03.891Z,99.90
2018-04-26T00:36:51.440Z,99.90
2018-04-26T00:39:39.225Z,99.90
2018-04-26T00:55:02.440Z,99.90
2018-04-26T01:00:58.644Z,99.90
2018-04-26T01:06:45.903Z,99.90
2018-04-26T01:12:45.037Z,99.90
2018-04-26T01:21:24.550Z,99.90
2018-04-26T01:33:25.750Z,99.90
2018-04-26T01:45:09.162Z,99.90
2018-04-26T01:47:39.416Z,99.90
2018-04-26T01:59:46.991Z,99.90
2018-04-26T02:05:16.088Z,99.90
2018-04-26T02:15:20.133Z,99.90
2018-04-26T02:17:50.368Z,99.90
2018-04-26T02:20:46.101Z,99.90
2018-04-26T02:23:16.270Z,99.90
2018-04-26T02:26:06.781Z,99.90
2018-04-26T02:28:37.971Z,99.90
2018-04-26T02:50:34.551Z,99.90
2018-04-26T02:53:22.975Z,99.90
2018-04-26T03:02:12.832Z,99.90
2018-04-26T03:11:15.142Z,99.90
2018-04-26T03:14:01.866Z,99.90
2018-04-26T03:23:11.715Z,99.90
2018-04-26T03:25:44.972Z,99.90
2018-04-26T03:28:15.354Z,99.90
2018-04-26T03:37:07.242Z,99.90
2018-04-26T03:43:05.976Z,99.90
2018-04-26T03:45:50.522Z,99.90
2018-04-26T03:48:39.905Z,99.90
2018-04-26T03:51:40.683Z,99.90
2018-04-26T03:57:36.921Z,99.90
2018-04-26T04:00:30.018Z,99.90
2018-04-26T04:06:27.895Z,99.90
2018-04-26T04:09:16.476Z,99.90
2018-04-26T04:12:00.183Z,99.90
2018-04-26T04:17:55.707Z,99.90
2018-04-26T04:20:25.998Z,99.90
2018-04-26T04:22:56.157Z,99.90
2018-04-26T04:25:41.946Z,99.90
2018-04-26T04:28:42.932Z,99.90
2018-04-26T04:31:13.105Z,99.90
2018-04-26T04:34:02.496Z,99.90
2018-04-26T04:36:32.689Z,99.90
2018-04-26T04:42:30.554Z,99.90
2018-04-26T04:45:16.565Z,99.90
2018-04-26T04:54:23.663Z,99.90
2018-04-26T04:56:57.268Z,99.90
2018-04-26T04:59:56.092Z,46.40
2018-04-26T05:02:33.898Z,81.80
2018-04-26T05:14:54.931Z,76.70
2018-04-26T05:17:51.331Z,99.90
2018-04-26T05:23:37.115Z,14.70
2018-04-26T05:29:03.557Z,5.90
2018-04-26T05:35:08.531Z,1.00
2018-04-26T06:03:13.458Z,1.00
2018-04-26T06:06:01.604Z,1.00
2018-04-26T06:08:50.598Z,1.00
2018-04-26T06:14:50.914Z,1.00
2018-04-26T06:17:21.387Z,1.00
2018-04-26T06:23:22.701Z,1.00
2018-04-26T06:44:41.340Z,1.00
2018-04-26T06:47:30.404Z,1.00
2018-04-26T06:53:22.558Z,1.00
2018-04-26T06:55:52.958Z,1.00
2018-04-26T07:01:43.295Z,1.00
2018-04-26T07:04:13.185Z,1.00
2018-04-26T07:06:43.537Z,1.00
2018-04-26T07:09:14.619Z,1.00
2018-04-26T07:15:05.227Z,1.00
2018-04-26T07:17:35.779Z,1.00
2018-04-26T07:20:05.567Z,8.50
2018-04-26T07:22:54.190Z,1.00
2018-04-26T07:38:18.562Z,1.00
2018-04-26T07:44:17.132Z,1.00
2018-04-26T07:47:05.395Z,1.00
2018-04-26T07:49:54.145Z,1.00
2018-04-26T07:59:05.248Z,1.00
2018-04-26T08:01:35.437Z,1.00
2018-04-26T08:04:05.440Z,1.00
2018-04-26T08:06:56.142Z,1.00
2018-04-26T08:09:44.603Z,1.00
2018-04-26T08:12:14.980Z,1.00
2018-04-26T08:18:13.672Z,1.00
2018-04-26T08:23:42.976Z,1.00
2018-04-26T08:26:13.278Z,1.00
2018-04-26T08:28:58.985Z,1.00
2018-04-26T08:35:02.587Z,1.00
2018-04-26T09:03:12.470Z,99.90
2018-04-26T10:12:05.379Z,99.90
2018-04-26T10:21:00.973Z,99.90
2018-04-26T10:26:57.664Z,99.90
2018-04-26T10:35:52.138Z,99.90
2018-04-26T10:38:26.007Z,99.90
2018-04-26T10:47:41.871Z,99.90
2018-04-26T10:50:38.387Z,99.90
2018-04-26T10:56:12.631Z,99.90
2018-04-26T10:58:52.227Z,99.90
2018-04-26T11:01:23.087Z,99.90
2018-04-26T11:03:53.140Z,99.90
2018-04-26T11:06:23.496Z,99.90
2018-04-26T11:08:53.601Z,99.90
2018-04-26T11:11:23.812Z,99.90
2018-04-26T11:13:53.736Z,99.90
2018-04-26T11:16:23.876Z,99.90
2018-04-26T11:18:53.957Z,99.90
2018-04-26T11:21:24.149Z,99.90
2018-04-26T11:23:54.473Z,99.90
2018-04-26T11:26:24.473Z,99.90
2018-04-26T11:28:54.912Z,99.90
2018-04-26T11:31:26.063Z,99.90
2018-04-26T11:33:56.139Z,99.90
2018-04-26T11:36:26.619Z,99.90
2018-04-26T11:38:56.919Z,99.90
2018-04-26T11:41:27.815Z,99.90
2018-04-26T11:43:59.000Z,99.90
2018-04-26T11:46:29.334Z,99.90
2018-04-26T11:48:59.439Z,99.90
2018-04-26T11:51:29.545Z,99.90
2018-04-26T11:54:00.710Z,99.90
2018-04-26T11:56:30.816Z,99.90
2018-04-26T11:59:01.182Z,99.90
2018-04-26T12:01:32.263Z,99.90
2018-04-26T12:04:02.332Z,99.90
2018-04-26T12:06:32.675Z,99.90
2018-04-26T12:09:02.777Z,99.90
2018-04-26T12:11:33.426Z,99.90
2018-04-26T12:14:03.512Z,99.90
2018-04-26T12:16:34.476Z,99.90
2018-04-26T12:19:04.730Z,99.90
2018-04-26T12:21:34.831Z,99.90
2018-04-26T12:24:05.179Z,99.90
2018-04-26T12:26:35.597Z,99.90
2018-04-26T12:29:05.876Z,99.90
2018-04-26T12:31:35.971Z,99.90
2018-04-26T12:34:06.096Z,99.90
2018-04-26T12:36:36.689Z,99.90
2018-04-26T12:39:06.919Z,99.90
2018-04-26T12:41:37.353Z,99.90
2018-04-26T12:44:07.437Z,99.90
2018-04-26T12:46:37.542Z,99.90
2018-04-26T12:49:08.224Z,99.90
2018-04-26T12:51:39.061Z,99.90
2018-04-26T12:54:09.169Z,99.90
2018-04-26T12:56:39.251Z,99.90
2018-04-26T12:59:09.604Z,99.90
2018-04-26T13:01:39.952Z,99.90
2018-04-26T13:04:10.276Z,99.90
2018-04-26T13:06:41.311Z,99.90
2018-04-26T13:09:12.171Z,99.90
2018-04-26T13:11:42.264Z,99.90
2018-04-26T13:14:12.766Z,99.90
2018-04-26T13:16:43.144Z,99.90
2018-04-26T13:19:13.267Z,99.90
2018-04-26T13:21:43.254Z,99.90
2018-04-26T13:24:13.335Z,99.90
2018-04-26T13:26:43.432Z,99.90
2018-04-26T13:29:14.335Z,99.90
2018-04-26T13:31:45.923Z,99.90
2018-04-26T13:34:16.052Z,99.90
2018-04-26T13:36:46.159Z,99.90
2018-04-26T13:39:16.247Z,99.90
2018-04-26T13:41:46.667Z,99.90
2018-04-26T13:44:17.055Z,99.90
2018-04-26T13:46:47.330Z,99.90
2018-04-26T13:49:17.891Z,99.90
2018-04-26T13:51:48.048Z,99.90
2018-04-26T13:54:18.287Z,99.90
2018-04-26T13:56:48.469Z,99.90
2018-04-26T13:59:19.302Z,99.90
2018-04-26T14:01:49.418Z,99.90
2018-04-26T14:04:19.519Z,99.90
2018-04-26T14:06:49.683Z,99.90
2018-04-26T14:09:20.265Z,99.90
2018-04-26T14:11:50.102Z,99.90
2018-04-26T14:14:20.403Z,99.90
2018-04-26T14:16:51.291Z,99.90
2018-04-26T14:19:22.366Z,99.90
2018-04-26T14:21:52.495Z,99.90
2018-04-26T14:24:23.215Z,99.90
2018-04-26T14:26:53.338Z,99.90
2018-04-26T14:29:23.521Z,99.90
2018-04-26T14:31:53.748Z,99.90
2018-04-26T14:34:24.785Z,99.90
2018-04-26T14:36:55.423Z,99.90
2018-04-26T14:39:25.733Z,99.90
2018-04-26T14:41:56.309Z,99.90
2018-04-26T14:44:26.511Z,99.90
2018-04-26T14:46:56.645Z,99.90
2018-04-26T14:49:26.731Z,99.90
2018-04-26T14:51:57.887Z,99.90
2018-04-26T14:54:27.969Z,99.90
2018-04-26T14:56:58.074Z,99.90
2018-04-26T14:59:29.120Z,99.90
2018-04-26T15:01:59.987Z,99.90
2018-04-26T15:04:30.816Z,99.90
2018-04-26T15:07:00.997Z,99.90
2018-04-26T15:09:31.842Z,99.90
2018-04-26T15:12:02.248Z,99.90
2018-04-26T15:14:32.372Z,99.90
2018-04-26T15:17:02.693Z,99.90
2018-04-26T15:19:32.775Z,99.90
2018-04-26T15:22:03.772Z,99.90
2018-04-26T15:24:33.936Z,99.90
2018-04-26T15:27:03.697Z,99.90
2018-04-26T15:29:33.781Z,99.90
2018-04-26T15:32:03.904Z,99.90
2018-04-26T15:34:34.030Z,99.90
2018-04-26T15:37:04.377Z,99.90
2018-04-26T15:39:34.685Z,99.90
2018-04-26T15:42:05.617Z,99.90
2018-04-26T15:44:36.194Z,99.90
2018-04-26T15:47:06.265Z,99.90
2018-04-26T15:49:37.421Z,99.90
2018-04-26T15:52:07.760Z,99.90
2018-04-26T15:54:37.618Z,99.90
2018-04-26T15:57:29.752Z,99.90
2018-04-26T16:00:22.112Z,99.90
2018-04-26T16:03:09.073Z,99.90
2018-04-26T16:05:57.451Z,99.90
2018-04-26T16:12:07.796Z,99.90
2018-04-26T16:14:55.246Z,99.90
2018-04-26T16:20:54.306Z,99.90
2018-04-26T16:23:48.472Z,99.90
2018-04-26T16:26:35.357Z,99.90
2018-04-26T16:29:27.369Z,99.90
2018-04-26T16:32:19.710Z,99.90
2018-04-26T16:35:08.238Z,99.90
2018-04-26T16:38:02.068Z,99.90
2018-04-26T16:43:55.061Z,99.90
2018-04-26T16:52:05.296Z,99.90
2018-04-26T16:54:45.571Z,99.90
2018-04-26T17:00:22.831Z,99.90
2018-04-26T17:02:54.980Z,99.90
2018-04-26T17:05:25.397Z,99.90
2018-04-26T17:07:56.615Z,99.90
2018-04-26T17:10:27.522Z,99.90
2018-04-26T17:12:57.667Z,99.90
2018-04-26T17:15:27.736Z,99.90
2018-04-26T17:17:57.820Z,99.90
2018-04-26T17:20:28.699Z,99.90
2018-04-26T17:22:58.800Z,99.90
2018-04-26T17:25:29.326Z,99.90
2018-04-26T17:28:00.746Z,99.90
2018-04-26T17:30:33.271Z,99.90
2018-04-26T17:33:04.143Z,99.90
2018-04-26T17:35:34.223Z,99.90
2018-04-26T17:38:04.602Z,99.90
2018-04-26T17:40:34.878Z,99.90
2018-04-26T17:43:05.718Z,99.90
2018-04-26T17:45:35.839Z,99.90
2018-04-26T17:48:06.940Z,99.90
2018-04-26T17:50:37.161Z,99.90
2018-04-26T17:53:10.971Z,99.90
2018-04-26T17:55:41.205Z,99.90
2018-04-26T17:58:12.085Z,99.90
2018-04-26T18:00:43.201Z,99.90
2018-04-26T18:03:14.255Z,99.90
2018-04-26T18:05:44.008Z,99.90
2018-04-26T18:08:14.136Z,99.90
2018-04-26T18:10:48.061Z,99.90
2018-04-26T18:13:18.417Z,99.90
2018-04-26T18:15:48.476Z,99.90
2018-04-26T18:21:08.096Z,1.00
2018-04-26T19:06:23.195Z,1.00
2018-04-26T19:08:53.771Z,1.00
2018-04-26T19:11:24.717Z,1.00
2018-04-26T19:17:17.253Z,1.00
2018-04-26T19:19:47.425Z,1.00
2018-04-26T19:22:21.803Z,1.00
2018-04-26T19:24:52.550Z,1.00
2018-04-26T19:33:53.957Z,1.00
2018-04-26T19:36:24.333Z,1.00
2018-04-26T19:38:56.870Z,1.00
2018-04-26T19:41:26.937Z,1.00
2018-04-26T19:44:24.503Z,1.00
2018-04-26T19:50:00.600Z,1.00
2018-04-26T19:52:32.678Z,1.00
2018-04-26T19:55:03.006Z,1.00
2018-04-26T19:57:48.335Z,1.00
2018-04-26T20:03:21.344Z,1.00
2018-04-26T20:05:51.598Z,1.00
2018-04-26T20:08:46.522Z,1.00
2018-04-26T20:11:18.444Z,1.00
2018-04-26T20:13:48.531Z,1.00
2018-04-26T20:16:18.664Z,1.00
2018-04-26T20:18:48.743Z,1.00
2018-04-26T20:21:18.830Z,1.00
2018-04-26T20:23:48.927Z,1.00
2018-04-26T20:26:19.305Z,1.00
2018-04-26T20:28:49.390Z,1.00
2018-04-26T20:31:20.249Z,1.00
2018-04-26T20:36:57.538Z,1.00
2018-04-26T20:39:48.088Z,1.00
2018-04-26T20:42:18.155Z,1.00
2018-04-26T20:44:49.285Z,1.00
2018-04-26T20:47:45.208Z,1.00
2018-04-26T20:50:19.022Z,1.00
2018-04-26T20:52:49.424Z,1.00
2018-04-26T20:55:19.823Z,1.00
2018-04-26T20:58:15.738Z,1.00
2018-04-26T21:00:45.871Z,1.00
2018-04-26T21:03:15.967Z,1.00
2018-04-26T21:05:46.317Z,1.00
2018-04-26T21:08:18.333Z,1.00
2018-04-26T21:10:48.418Z,1.00
2018-04-26T21:13:20.080Z,1.00
2018-04-26T21:15:50.917Z,1.00
2018-04-26T21:18:21.240Z,1.00
2018-04-26T21:21:19.451Z,1.00
2018-04-26T21:23:49.530Z,1.00
2018-04-26T21:26:19.876Z,1.00
2018-04-26T21:28:49.935Z,1.00
2018-04-26T21:31:20.712Z,1.00
2018-04-26T21:34:15.794Z,1.00
2018-04-26T21:36:45.879Z,1.00
2018-04-26T21:42:20.376Z,1.00
2018-04-26T21:44:50.449Z,1.00
2018-04-26T21:47:21.555Z,1.00
2018-04-26T21:49:57.907Z,1.00
2018-04-26T21:52:34.245Z,1.00
2018-04-26T21:58:34.225Z,1.00
2018-04-26T22:01:09.390Z,1.00
2018-04-26T22:06:45.541Z,1.00
2018-04-26T22:09:16.747Z,1.00
2018-04-26T22:14:42.820Z,1.00
2018-04-26T22:17:13.184Z,1.00
2018-04-26T22:19:43.260Z,1.00
2018-04-26T22:22:13.389Z,1.00
2018-04-26T22:24:43.772Z,1.00
2018-04-26T22:27:29.533Z,1.00
2018-04-26T22:30:16.395Z,1.00
2018-04-26T22:35:44.459Z,1.00
2018-04-26T22:38:21.540Z,1.00
2018-04-26T22:40:51.618Z,1.00
2018-04-26T22:43:21.758Z,1.00
2018-04-26T22:45:51.811Z,1.00
2018-04-26T22:48:22.107Z,1.00
2018-04-26T22:50:52.807Z,1.00
2018-04-26T22:56:29.830Z,1.00
2018-04-26T22:59:00.082Z,1.00
2018-04-26T23:01:29.822Z,1.00
2018-04-26T23:04:06.345Z,1.00
2018-04-26T23:06:38.310Z,1.00
2018-04-26T23:12:16.296Z,1.00
2018-04-26T23:14:50.121Z,1.00
2018-04-26T23:17:20.385Z,1.00
2018-04-26T23:19:50.471Z,1.00
2018-04-26T23:22:20.733Z,1.00
2018-04-26T23:24:51.804Z,1.00
2018-04-26T23:27:22.129Z,1.00
2018-04-26T23:29:52.903Z,1.00
2018-04-26T23:32:28.472Z,1.00
2018-04-26T23:34:58.776Z,1.00
2018-04-26T23:37:29.026Z,1.00
2018-04-26T23:39:59.041Z,1.00
2018-04-26T23:42:29.608Z,1.00
2018-04-26T23:44:59.697Z,1.00
2018-04-26T23:47:47.796Z,1.00
2018-04-26T23:50:17.903Z,1.00
2018-04-26T23:52:48.246Z,1.00
2018-04-26T23:55:19.167Z,1.00
2018-04-26T23:58:15.889Z,1.00
